sensor_id;sensor_type;location;lat;lon;timestamp;P1;durP1;ratioP1;P2;durP2;ratioP2
11123;SDS011;5616;42.692;23.312;2022-11-14T00:02:25;53.83;;;36.00;;
11123;SDS011;5616;42.692;23.312;2022-11-14T00:05:11;55.53;;;36.67;;
11123;SDS011;5616;42.692;23.312;2022-11-14T00:07:56;51.33;;;34.53;;
11123;SDS011;5616;42.692;23.312;2022-11-14T00:10:44;52.47;;;34.10;;
11123;SDS011;5616;42.692;23.312;2022-11-14T00:13:30;52.60;;;34.53;;
11123;SDS011;5616;42.692;23.312;2022-11-14T00:16:15;51.57;;;34.70;;
11123;SDS011;5616;42.692;23.312;2022-11-14T00:19:01;52.20;;;33.53;;
11123;SDS011;5616;42.692;23.312;2022-11-14T00:21:47;47.60;;;32.83;;
11123;SDS011;5616;42.692;23.312;2022-11-14T00:24:32;46.33;;;30.40;;
11123;SDS011;5616;42.692;23.312;2022-11-14T00:27:19;45.60;;;32.20;;
11123;SDS011;5616;42.692;23.312;2022-11-14T00:30:04;49.70;;;32.50;;
11123;SDS011;5616;42.692;23.312;2022-11-14T00:32:50;43.60;;;30.80;;
11123;SDS011;5616;42.692;23.312;2022-11-14T00:35:36;45.10;;;31.60;;
11123;SDS011;5616;42.692;23.312;2022-11-14T00:38:21;48.30;;;31.67;;
11123;SDS011;5616;42.692;23.312;2022-11-14T00:41:07;51.40;;;36.77;;
11123;SDS011;5616;42.692;23.312;2022-11-14T00:43:53;45.00;;;31.23;;
11123;SDS011;5616;42.692;23.312;2022-11-14T00:46:39;48.47;;;34.42;;
11123;SDS011;5616;42.692;23.312;2022-11-14T00:49:24;46.00;;;32.10;;
11123;SDS011;5616;42.692;23.312;2022-11-14T00:52:09;48.33;;;31.70;;
11123;SDS011;5616;42.692;23.312;2022-11-14T00:54:55;46.73;;;31.90;;
11123;SDS011;5616;42.692;23.312;2022-11-14T00:57:40;48.60;;;31.97;;
11123;SDS011;5616;42.692;23.312;2022-11-14T01:00:27;44.13;;;30.90;;
11123;SDS011;5616;42.692;23.312;2022-11-14T01:03:12;47.97;;;31.93;;
11123;SDS011;5616;42.692;23.312;2022-11-14T01:06:02;48.47;;;32.30;;
11123;SDS011;5616;42.692;23.312;2022-11-14T01:08:49;46.70;;;32.23;;
11123;SDS011;5616;42.692;23.312;2022-11-14T01:11:35;51.83;;;32.77;;
11123;SDS011;5616;42.692;23.312;2022-11-14T01:14:20;48.53;;;31.97;;
11123;SDS011;5616;42.692;23.312;2022-11-14T01:17:07;51.55;;;39.75;;
11123;SDS011;5616;42.692;23.312;2022-11-14T01:19:52;46.33;;;34.23;;
11123;SDS011;5616;42.692;23.312;2022-11-14T01:22:38;54.77;;;35.43;;
11123;SDS011;5616;42.692;23.312;2022-11-14T01:25:23;55.13;;;34.57;;
11123;SDS011;5616;42.692;23.312;2022-11-14T01:28:10;52.53;;;33.80;;
11123;SDS011;5616;42.692;23.312;2022-11-14T01:31:00;51.63;;;33.33;;
11123;SDS011;5616;42.692;23.312;2022-11-14T01:33:53;49.37;;;32.20;;
11123;SDS011;5616;42.692;23.312;2022-11-14T01:36:39;48.87;;;31.93;;
11123;SDS011;5616;42.692;23.312;2022-11-14T01:39:24;49.53;;;32.77;;
11123;SDS011;5616;42.692;23.312;2022-11-14T01:42:10;49.63;;;32.00;;
11123;SDS011;5616;42.692;23.312;2022-11-14T01:44:56;49.93;;;33.83;;
11123;SDS011;5616;42.692;23.312;2022-11-14T01:47:41;49.50;;;33.30;;
11123;SDS011;5616;42.692;23.312;2022-11-14T01:50:28;47.77;;;32.40;;
11123;SDS011;5616;42.692;23.312;2022-11-14T01:53:14;49.77;;;32.67;;
11123;SDS011;5616;42.692;23.312;2022-11-14T01:56:02;51.30;;;32.57;;
11123;SDS011;5616;42.692;23.312;2022-11-14T01:58:51;48.23;;;32.10;;
11123;SDS011;5616;42.692;23.312;2022-11-14T02:01:40;49.97;;;32.17;;
11123;SDS011;5616;42.692;23.312;2022-11-14T02:04:31;45.00;;;29.90;;
11123;SDS011;5616;42.692;23.312;2022-11-14T02:07:21;44.97;;;29.20;;
11123;SDS011;5616;42.692;23.312;2022-11-14T02:10:13;46.03;;;29.73;;
11123;SDS011;5616;42.692;23.312;2022-11-14T02:13:00;44.57;;;29.37;;
11123;SDS011;5616;42.692;23.312;2022-11-14T02:15:46;43.97;;;29.27;;
11123;SDS011;5616;42.692;23.312;2022-11-14T02:18:31;43.43;;;28.17;;
11123;SDS011;5616;42.692;23.312;2022-11-14T02:21:18;42.47;;;29.57;;
11123;SDS011;5616;42.692;23.312;2022-11-14T02:24:06;44.40;;;29.20;;
11123;SDS011;5616;42.692;23.312;2022-11-14T02:26:53;45.60;;;30.07;;
11123;SDS011;5616;42.692;23.312;2022-11-14T02:29:38;46.40;;;30.07;;
11123;SDS011;5616;42.692;23.312;2022-11-14T02:32:24;46.13;;;30.37;;
11123;SDS011;5616;42.692;23.312;2022-11-14T02:35:09;46.73;;;30.10;;
11123;SDS011;5616;42.692;23.312;2022-11-14T02:37:56;42.20;;;29.33;;
11123;SDS011;5616;42.692;23.312;2022-11-14T02:40:41;48.07;;;31.23;;
11123;SDS011;5616;42.692;23.312;2022-11-14T02:43:26;50.70;;;31.97;;
11123;SDS011;5616;42.692;23.312;2022-11-14T02:46:11;47.50;;;30.83;;
11123;SDS011;5616;42.692;23.312;2022-11-14T02:48:57;47.80;;;31.40;;
11123;SDS011;5616;42.692;23.312;2022-11-14T02:51:42;51.90;;;31.17;;
11123;SDS011;5616;42.692;23.312;2022-11-14T02:54:29;45.03;;;30.60;;
11123;SDS011;5616;42.692;23.312;2022-11-14T02:57:14;47.13;;;30.93;;
11123;SDS011;5616;42.692;23.312;2022-11-14T03:00:00;44.63;;;30.57;;
11123;SDS011;5616;42.692;23.312;2022-11-14T03:02:45;48.97;;;31.30;;
11123;SDS011;5616;42.692;23.312;2022-11-14T03:05:30;49.63;;;31.90;;
11123;SDS011;5616;42.692;23.312;2022-11-14T03:08:16;45.53;;;30.57;;
11123;SDS011;5616;42.692;23.312;2022-11-14T03:11:04;42.30;;;28.83;;
11123;SDS011;5616;42.692;23.312;2022-11-14T03:13:50;40.70;;;28.20;;
11123;SDS011;5616;42.692;23.312;2022-11-14T03:16:35;39.47;;;27.30;;
11123;SDS011;5616;42.692;23.312;2022-11-14T03:19:21;42.03;;;28.37;;
11123;SDS011;5616;42.692;23.312;2022-11-14T03:22:06;36.93;;;25.67;;
11123;SDS011;5616;42.692;23.312;2022-11-14T03:24:52;43.40;;;27.00;;
11123;SDS011;5616;42.692;23.312;2022-11-14T03:27:38;39.40;;;26.90;;
11123;SDS011;5616;42.692;23.312;2022-11-14T03:30:24;38.93;;;26.63;;
11123;SDS011;5616;42.692;23.312;2022-11-14T03:33:09;42.78;;;29.13;;
11123;SDS011;5616;42.692;23.312;2022-11-14T03:35:55;40.70;;;27.67;;
11123;SDS011;5616;42.692;23.312;2022-11-14T03:38:40;38.70;;;26.27;;
11123;SDS011;5616;42.692;23.312;2022-11-14T03:41:27;39.17;;;25.73;;
11123;SDS011;5616;42.692;23.312;2022-11-14T03:44:13;39.37;;;25.40;;
11123;SDS011;5616;42.692;23.312;2022-11-14T03:46:59;39.23;;;25.00;;
11123;SDS011;5616;42.692;23.312;2022-11-14T03:49:44;33.57;;;24.10;;
11123;SDS011;5616;42.692;23.312;2022-11-14T03:52:29;39.73;;;24.70;;
11123;SDS011;5616;42.692;23.312;2022-11-14T03:55:15;40.23;;;25.60;;
11123;SDS011;5616;42.692;23.312;2022-11-14T03:58:00;36.33;;;24.80;;
11123;SDS011;5616;42.692;23.312;2022-11-14T04:00:47;39.90;;;26.17;;
11123;SDS011;5616;42.692;23.312;2022-11-14T04:03:33;41.90;;;26.27;;
11123;SDS011;5616;42.692;23.312;2022-11-14T04:06:18;38.00;;;25.43;;
11123;SDS011;5616;42.692;23.312;2022-11-14T04:09:03;36.63;;;25.57;;
11123;SDS011;5616;42.692;23.312;2022-11-14T04:11:50;39.97;;;26.13;;
11123;SDS011;5616;42.692;23.312;2022-11-14T04:14:35;38.87;;;25.23;;
11123;SDS011;5616;42.692;23.312;2022-11-14T04:17:22;36.40;;;25.20;;
11123;SDS011;5616;42.692;23.312;2022-11-14T04:20:08;42.47;;;26.47;;
11123;SDS011;5616;42.692;23.312;2022-11-14T04:22:54;38.80;;;25.20;;
11123;SDS011;5616;42.692;23.312;2022-11-14T04:25:41;45.53;;;25.80;;
11123;SDS011;5616;42.692;23.312;2022-11-14T04:28:27;40.37;;;25.83;;
11123;SDS011;5616;42.692;23.312;2022-11-14T04:31:12;42.80;;;26.23;;
11123;SDS011;5616;42.692;23.312;2022-11-14T04:33:59;39.20;;;26.03;;
11123;SDS011;5616;42.692;23.312;2022-11-14T04:36:44;41.10;;;26.17;;
11123;SDS011;5616;42.692;23.312;2022-11-14T04:39:30;40.83;;;24.70;;
11123;SDS011;5616;42.692;23.312;2022-11-14T04:42:15;40.63;;;27.17;;
11123;SDS011;5616;42.692;23.312;2022-11-14T04:45:01;40.83;;;25.17;;
11123;SDS011;5616;42.692;23.312;2022-11-14T04:47:46;38.23;;;24.00;;
11123;SDS011;5616;42.692;23.312;2022-11-14T04:50:33;35.80;;;23.63;;
11123;SDS011;5616;42.692;23.312;2022-11-14T04:53:18;39.37;;;25.37;;
11123;SDS011;5616;42.692;23.312;2022-11-14T04:56:04;40.17;;;24.43;;
11123;SDS011;5616;42.692;23.312;2022-11-14T04:58:49;41.40;;;24.73;;
11123;SDS011;5616;42.692;23.312;2022-11-14T05:01:35;44.00;;;25.77;;
11123;SDS011;5616;42.692;23.312;2022-11-14T05:04:21;43.67;;;25.70;;
11123;SDS011;5616;42.692;23.312;2022-11-14T05:07:07;50.03;;;28.67;;
11123;SDS011;5616;42.692;23.312;2022-11-14T05:09:52;49.67;;;27.93;;
11123;SDS011;5616;42.692;23.312;2022-11-14T05:12:38;48.33;;;27.03;;
11123;SDS011;5616;42.692;23.312;2022-11-14T05:15:23;46.27;;;26.77;;
11123;SDS011;5616;42.692;23.312;2022-11-14T05:18:08;51.22;;;29.55;;
11123;SDS011;5616;42.692;23.312;2022-11-14T05:20:56;53.73;;;28.93;;
11123;SDS011;5616;42.692;23.312;2022-11-14T05:23:44;51.83;;;28.50;;
11123;SDS011;5616;42.692;23.312;2022-11-14T05:26:29;50.33;;;27.87;;
11123;SDS011;5616;42.692;23.312;2022-11-14T05:29:14;52.37;;;27.80;;
11123;SDS011;5616;42.692;23.312;2022-11-14T05:31:59;56.90;;;29.10;;
11123;SDS011;5616;42.692;23.312;2022-11-14T05:34:45;54.50;;;28.00;;
11123;SDS011;5616;42.692;23.312;2022-11-14T05:37:30;53.07;;;28.77;;
11123;SDS011;5616;42.692;23.312;2022-11-14T05:40:18;57.70;;;29.93;;
11123;SDS011;5616;42.692;23.312;2022-11-14T05:43:04;54.70;;;28.60;;
11123;SDS011;5616;42.692;23.312;2022-11-14T05:45:49;49.00;;;28.83;;
11123;SDS011;5616;42.692;23.312;2022-11-14T05:48:34;68.17;;;30.23;;
11123;SDS011;5616;42.692;23.312;2022-11-14T05:51:21;57.40;;;29.07;;
11123;SDS011;5616;42.692;23.312;2022-11-14T05:54:06;60.13;;;29.43;;
11123;SDS011;5616;42.692;23.312;2022-11-14T05:56:53;63.57;;;30.07;;
11123;SDS011;5616;42.692;23.312;2022-11-14T05:59:38;61.87;;;29.63;;
11123;SDS011;5616;42.692;23.312;2022-11-14T06:02:23;49.07;;;27.10;;
11123;SDS011;5616;42.692;23.312;2022-11-14T06:05:09;61.70;;;29.90;;
11123;SDS011;5616;42.692;23.312;2022-11-14T06:07:54;44.90;;;27.13;;
11123;SDS011;5616;42.692;23.312;2022-11-14T06:10:40;56.90;;;29.47;;
11123;SDS011;5616;42.692;23.312;2022-11-14T06:13:27;61.43;;;29.30;;
11123;SDS011;5616;42.692;23.312;2022-11-14T06:16:13;56.53;;;30.30;;
11123;SDS011;5616;42.692;23.312;2022-11-14T06:18:59;55.10;;;29.43;;
11123;SDS011;5616;42.692;23.312;2022-11-14T06:21:45;52.60;;;28.17;;
11123;SDS011;5616;42.692;23.312;2022-11-14T06:24:30;50.50;;;27.90;;
11123;SDS011;5616;42.692;23.312;2022-11-14T06:27:16;47.03;;;28.03;;
11123;SDS011;5616;42.692;23.312;2022-11-14T06:30:03;41.67;;;25.87;;
11123;SDS011;5616;42.692;23.312;2022-11-14T06:32:49;45.90;;;26.43;;
11123;SDS011;5616;42.692;23.312;2022-11-14T06:35:34;47.47;;;29.33;;
11123;SDS011;5616;42.692;23.312;2022-11-14T06:38:20;46.03;;;26.03;;
11123;SDS011;5616;42.692;23.312;2022-11-14T06:41:06;42.43;;;23.90;;
11123;SDS011;5616;42.692;23.312;2022-11-14T06:43:53;43.57;;;24.90;;
11123;SDS011;5616;42.692;23.312;2022-11-14T06:46:39;41.93;;;23.83;;
11123;SDS011;5616;42.692;23.312;2022-11-14T06:49:25;41.80;;;23.80;;
11123;SDS011;5616;42.692;23.312;2022-11-14T06:52:10;35.37;;;20.97;;
11123;SDS011;5616;42.692;23.312;2022-11-14T06:54:56;43.37;;;23.67;;
11123;SDS011;5616;42.692;23.312;2022-11-14T06:57:42;36.57;;;22.87;;
11123;SDS011;5616;42.692;23.312;2022-11-14T07:00:27;33.03;;;21.70;;
11123;SDS011;5616;42.692;23.312;2022-11-14T07:03:13;34.53;;;22.50;;
11123;SDS011;5616;42.692;23.312;2022-11-14T07:05:59;33.47;;;18.77;;
11123;SDS011;5616;42.692;23.312;2022-11-14T07:08:45;28.10;;;18.77;;
11123;SDS011;5616;42.692;23.312;2022-11-14T07:11:31;26.57;;;17.47;;
11123;SDS011;5616;42.692;23.312;2022-11-14T07:14:18;28.40;;;18.57;;
11123;SDS011;5616;42.692;23.312;2022-11-14T07:17:04;26.97;;;17.93;;
11123;SDS011;5616;42.692;23.312;2022-11-14T07:19:51;25.90;;;17.50;;
11123;SDS011;5616;42.692;23.312;2022-11-14T07:22:36;25.27;;;18.50;;
11123;SDS011;5616;42.692;23.312;2022-11-14T07:25:22;26.17;;;18.67;;
11123;SDS011;5616;42.692;23.312;2022-11-14T07:28:07;24.27;;;17.87;;
11123;SDS011;5616;42.692;23.312;2022-11-14T07:30:52;21.67;;;16.73;;
11123;SDS011;5616;42.692;23.312;2022-11-14T07:33:38;26.40;;;18.13;;
11123;SDS011;5616;42.692;23.312;2022-11-14T07:36:25;27.17;;;18.83;;
11123;SDS011;5616;42.692;23.312;2022-11-14T07:39:10;30.00;;;17.77;;
11123;SDS011;5616;42.692;23.312;2022-11-14T07:41:56;25.80;;;17.53;;
11123;SDS011;5616;42.692;23.312;2022-11-14T07:44:41;26.90;;;17.80;;
11123;SDS011;5616;42.692;23.312;2022-11-14T07:47:27;27.50;;;19.33;;
11123;SDS011;5616;42.692;23.312;2022-11-14T07:50:12;28.20;;;19.80;;
11123;SDS011;5616;42.692;23.312;2022-11-14T07:52:59;34.90;;;19.90;;
11123;SDS011;5616;42.692;23.312;2022-11-14T07:55:45;31.83;;;20.87;;
11123;SDS011;5616;42.692;23.312;2022-11-14T07:58:30;29.53;;;20.50;;
11123;SDS011;5616;42.692;23.312;2022-11-14T08:01:16;37.47;;;24.60;;
11123;SDS011;5616;42.692;23.312;2022-11-14T08:04:01;37.47;;;23.77;;
11123;SDS011;5616;42.692;23.312;2022-11-14T08:06:46;37.30;;;23.93;;
11123;SDS011;5616;42.692;23.312;2022-11-14T08:09:33;39.30;;;24.53;;
11123;SDS011;5616;42.692;23.312;2022-11-14T08:12:18;35.00;;;23.77;;
11123;SDS011;5616;42.692;23.312;2022-11-14T08:15:04;35.97;;;24.73;;
11123;SDS011;5616;42.692;23.312;2022-11-14T08:17:50;31.70;;;22.87;;
11123;SDS011;5616;42.692;23.312;2022-11-14T08:20:36;37.37;;;24.90;;
11123;SDS011;5616;42.692;23.312;2022-11-14T08:23:22;33.97;;;23.23;;
11123;SDS011;5616;42.692;23.312;2022-11-14T08:26:08;34.17;;;21.83;;
11123;SDS011;5616;42.692;23.312;2022-11-14T08:28:53;35.97;;;23.07;;
11123;SDS011;5616;42.692;23.312;2022-11-14T08:31:39;32.87;;;20.07;;
11123;SDS011;5616;42.692;23.312;2022-11-14T08:34:24;33.37;;;22.17;;
11123;SDS011;5616;42.692;23.312;2022-11-14T08:37:12;33.57;;;21.10;;
11123;SDS011;5616;42.692;23.312;2022-11-14T08:39:57;29.93;;;20.57;;
11123;SDS011;5616;42.692;23.312;2022-11-14T08:42:44;31.73;;;22.13;;
11123;SDS011;5616;42.692;23.312;2022-11-14T08:45:30;37.77;;;23.87;;
11123;SDS011;5616;42.692;23.312;2022-11-14T08:48:15;33.43;;;22.60;;
11123;SDS011;5616;42.692;23.312;2022-11-14T08:51:01;27.00;;;20.70;;
11123;SDS011;5616;42.692;23.312;2022-11-14T08:53:48;33.50;;;21.90;;
11123;SDS011;5616;42.692;23.312;2022-11-14T08:56:34;31.90;;;23.03;;
11123;SDS011;5616;42.692;23.312;2022-11-14T08:59:21;42.40;;;26.10;;
11123;SDS011;5616;42.692;23.312;2022-11-14T09:02:08;36.50;;;23.70;;
11123;SDS011;5616;42.692;23.312;2022-11-14T09:04:53;42.23;;;26.67;;
11123;SDS011;5616;42.692;23.312;2022-11-14T09:07:39;34.93;;;24.77;;
11123;SDS011;5616;42.692;23.312;2022-11-14T09:10:24;36.20;;;24.90;;
11123;SDS011;5616;42.692;23.312;2022-11-14T09:13:10;34.20;;;24.63;;
11123;SDS011;5616;42.692;23.312;2022-11-14T09:15:56;33.60;;;24.20;;
11123;SDS011;5616;42.692;23.312;2022-11-14T09:18:42;35.10;;;24.50;;
11123;SDS011;5616;42.692;23.312;2022-11-14T09:21:27;31.03;;;23.93;;
11123;SDS011;5616;42.692;23.312;2022-11-14T09:24:13;34.10;;;25.87;;
11123;SDS011;5616;42.692;23.312;2022-11-14T09:26:58;36.90;;;25.90;;
11123;SDS011;5616;42.692;23.312;2022-11-14T09:29:44;39.50;;;25.93;;
11123;SDS011;5616;42.692;23.312;2022-11-14T09:32:31;44.87;;;29.27;;
11123;SDS011;5616;42.692;23.312;2022-11-14T09:35:16;47.13;;;31.43;;
11123;SDS011;5616;42.692;23.312;2022-11-14T09:38:01;46.23;;;31.63;;
11123;SDS011;5616;42.692;23.312;2022-11-14T09:40:51;45.97;;;31.77;;
11123;SDS011;5616;42.692;23.312;2022-11-14T09:44:00;50.53;;;31.70;;
11123;SDS011;5616;42.692;23.312;2022-11-14T09:47:06;45.27;;;31.80;;
11123;SDS011;5616;42.692;23.312;2022-11-14T09:49:58;50.00;;;33.40;;
11123;SDS011;5616;42.692;23.312;2022-11-14T09:52:48;43.90;;;31.47;;
11123;SDS011;5616;42.692;23.312;2022-11-14T09:55:37;48.77;;;32.50;;
11123;SDS011;5616;42.692;23.312;2022-11-14T09:58:23;54.67;;;32.77;;
11123;SDS011;5616;42.692;23.312;2022-11-14T10:01:11;48.33;;;32.83;;
11123;SDS011;5616;42.692;23.312;2022-11-14T10:04:02;55.77;;;33.43;;
11123;SDS011;5616;42.692;23.312;2022-11-14T10:06:58;51.33;;;33.20;;
11123;SDS011;5616;42.692;23.312;2022-11-14T10:09:56;61.30;;;36.50;;
11123;SDS011;5616;42.692;23.312;2022-11-14T10:12:49;58.33;;;36.43;;
11123;SDS011;5616;42.692;23.312;2022-11-14T10:15:44;49.63;;;32.87;;
11123;SDS011;5616;42.692;23.312;2022-11-14T10:18:46;51.50;;;33.80;;
11123;SDS011;5616;42.692;23.312;2022-11-14T10:21:50;55.60;;;34.20;;
11123;SDS011;5616;42.692;23.312;2022-11-14T10:25:02;50.57;;;33.20;;
11123;SDS011;5616;42.692;23.312;2022-11-14T10:28:04;47.97;;;31.83;;
11123;SDS011;5616;42.692;23.312;2022-11-14T10:31:05;47.17;;;32.20;;
11123;SDS011;5616;42.692;23.312;2022-11-14T10:33:59;56.17;;;35.97;;
11123;SDS011;5616;42.692;23.312;2022-11-14T10:36:53;57.93;;;36.50;;
11123;SDS011;5616;42.692;23.312;2022-11-14T10:39:45;45.67;;;30.57;;
11123;SDS011;5616;42.692;23.312;2022-11-14T10:42:36;49.17;;;32.80;;
11123;SDS011;5616;42.692;23.312;2022-11-14T10:45:25;48.60;;;33.60;;
11123;SDS011;5616;42.692;23.312;2022-11-14T10:48:15;50.40;;;32.53;;
11123;SDS011;5616;42.692;23.312;2022-11-14T10:51:05;49.17;;;32.23;;
11123;SDS011;5616;42.692;23.312;2022-11-14T10:53:59;50.70;;;34.57;;
11123;SDS011;5616;42.692;23.312;2022-11-14T10:56:49;48.30;;;32.77;;
11123;SDS011;5616;42.692;23.312;2022-11-14T10:59:37;52.30;;;33.37;;
11123;SDS011;5616;42.692;23.312;2022-11-14T11:02:23;45.60;;;32.47;;
11123;SDS011;5616;42.692;23.312;2022-11-14T11:05:10;50.33;;;33.80;;
11123;SDS011;5616;42.692;23.312;2022-11-14T11:07:59;49.87;;;32.37;;
11123;SDS011;5616;42.692;23.312;2022-11-14T11:11:02;51.80;;;32.57;;
11123;SDS011;5616;42.692;23.312;2022-11-14T11:14:08;49.70;;;32.97;;
11123;SDS011;5616;42.692;23.312;2022-11-14T11:17:08;48.63;;;31.80;;
11123;SDS011;5616;42.692;23.312;2022-11-14T11:23:16;45.57;;;31.93;;
11123;SDS011;5616;42.692;23.312;2022-11-14T11:26:04;48.20;;;32.13;;
11123;SDS011;5616;42.692;23.312;2022-11-14T11:31:59;48.73;;;33.87;;
11123;SDS011;5616;42.692;23.312;2022-11-14T11:34:47;52.70;;;34.27;;
11123;SDS011;5616;42.692;23.312;2022-11-14T11:37:32;54.73;;;34.60;;
11123;SDS011;5616;42.692;23.312;2022-11-14T11:40:23;52.23;;;33.83;;
11123;SDS011;5616;42.692;23.312;2022-11-14T11:43:12;46.97;;;33.63;;
11123;SDS011;5616;42.692;23.312;2022-11-14T11:46:03;52.33;;;35.13;;
11123;SDS011;5616;42.692;23.312;2022-11-14T11:48:52;49.00;;;35.37;;
11123;SDS011;5616;42.692;23.312;2022-11-14T11:51:47;49.37;;;35.97;;
11123;SDS011;5616;42.692;23.312;2022-11-14T11:54:44;50.87;;;37.17;;
11123;SDS011;5616;42.692;23.312;2022-11-14T11:57:34;50.70;;;36.60;;
11123;SDS011;5616;42.692;23.312;2022-11-14T12:00:25;60.47;;;36.57;;
11123;SDS011;5616;42.692;23.312;2022-11-14T12:03:11;50.77;;;34.87;;
11123;SDS011;5616;42.692;23.312;2022-11-14T12:06:02;55.30;;;37.30;;
11123;SDS011;5616;42.692;23.312;2022-11-14T12:09:02;56.53;;;38.40;;
11123;SDS011;5616;42.692;23.312;2022-11-14T12:12:00;60.90;;;38.33;;
11123;SDS011;5616;42.692;23.312;2022-11-14T12:14:59;58.73;;;37.83;;
11123;SDS011;5616;42.692;23.312;2022-11-14T12:18:03;61.17;;;38.27;;
11123;SDS011;5616;42.692;23.312;2022-11-14T12:21:15;49.70;;;36.70;;
11123;SDS011;5616;42.692;23.312;2022-11-14T12:24:16;55.07;;;38.20;;
11123;SDS011;5616;42.692;23.312;2022-11-14T12:27:34;54.33;;;38.33;;
11123;SDS011;5616;42.692;23.312;2022-11-14T12:30:32;54.33;;;38.83;;
11123;SDS011;5616;42.692;23.312;2022-11-14T12:33:20;60.13;;;38.57;;
11123;SDS011;5616;42.692;23.312;2022-11-14T12:36:10;59.03;;;40.57;;
11123;SDS011;5616;42.692;23.312;2022-11-14T12:38:56;56.20;;;38.93;;
11123;SDS011;5616;42.692;23.312;2022-11-14T12:41:44;61.83;;;39.37;;
11123;SDS011;5616;42.692;23.312;2022-11-14T12:44:31;54.57;;;38.97;;
11123;SDS011;5616;42.692;23.312;2022-11-14T12:47:20;58.53;;;39.37;;
11123;SDS011;5616;42.692;23.312;2022-11-14T12:59:51;62.13;;;38.60;;
11123;SDS011;5616;42.692;23.312;2022-11-14T13:02:51;62.60;;;39.20;;
11123;SDS011;5616;42.692;23.312;2022-11-14T13:05:58;56.67;;;39.33;;
11123;SDS011;5616;42.692;23.312;2022-11-14T13:08:56;55.37;;;38.67;;
11123;SDS011;5616;42.692;23.312;2022-11-14T13:12:28;59.63;;;40.33;;
11123;SDS011;5616;42.692;23.312;2022-11-14T13:15:34;58.50;;;39.07;;
11123;SDS011;5616;42.692;23.312;2022-11-14T13:18:50;56.50;;;39.73;;
11123;SDS011;5616;42.692;23.312;2022-11-14T13:25:19;58.60;;;40.87;;
11123;SDS011;5616;42.692;23.312;2022-11-14T13:31:41;59.20;;;40.53;;
11123;SDS011;5616;42.692;23.312;2022-11-14T13:34:30;58.47;;;38.90;;
11123;SDS011;5616;42.692;23.312;2022-11-14T13:37:26;57.50;;;39.10;;
11123;SDS011;5616;42.692;23.312;2022-11-14T13:40:25;57.57;;;40.20;;
11123;SDS011;5616;42.692;23.312;2022-11-14T13:43:18;56.80;;;39.40;;
11123;SDS011;5616;42.692;23.312;2022-11-14T13:46:10;60.83;;;40.03;;
11123;SDS011;5616;42.692;23.312;2022-11-14T13:49:10;61.57;;;40.03;;
11123;SDS011;5616;42.692;23.312;2022-11-14T13:52:06;57.13;;;38.87;;
11123;SDS011;5616;42.692;23.312;2022-11-14T13:54:52;59.57;;;39.13;;
11123;SDS011;5616;42.692;23.312;2022-11-14T13:57:40;60.27;;;41.03;;
11123;SDS011;5616;42.692;23.312;2022-11-14T14:00:42;59.50;;;39.53;;
11123;SDS011;5616;42.692;23.312;2022-11-14T14:03:51;59.77;;;40.90;;
11123;SDS011;5616;42.692;23.312;2022-11-14T14:06:52;57.83;;;39.57;;
11123;SDS011;5616;42.692;23.312;2022-11-14T14:09:47;64.13;;;40.47;;
11123;SDS011;5616;42.692;23.312;2022-11-14T14:12:45;61.63;;;40.30;;
11123;SDS011;5616;42.692;23.312;2022-11-14T14:15:42;58.77;;;39.97;;
11123;SDS011;5616;42.692;23.312;2022-11-14T14:18:35;58.97;;;39.10;;
11123;SDS011;5616;42.692;23.312;2022-11-14T14:21:32;60.17;;;38.90;;
11123;SDS011;5616;42.692;23.312;2022-11-14T14:24:40;57.90;;;40.30;;
11123;SDS011;5616;42.692;23.312;2022-11-14T14:27:36;62.80;;;40.03;;
11123;SDS011;5616;42.692;23.312;2022-11-14T14:30:30;60.93;;;38.50;;
11123;SDS011;5616;42.692;23.312;2022-11-14T14:33:16;57.53;;;40.72;;
11123;SDS011;5616;42.692;23.312;2022-11-14T14:36:02;58.87;;;39.83;;
11123;SDS011;5616;42.692;23.312;2022-11-14T14:38:48;56.20;;;39.20;;
11123;SDS011;5616;42.692;23.312;2022-11-14T14:41:35;54.00;;;39.10;;
11123;SDS011;5616;42.692;23.312;2022-11-14T14:44:22;58.90;;;39.77;;
11123;SDS011;5616;42.692;23.312;2022-11-14T14:47:14;61.37;;;39.13;;
11123;SDS011;5616;42.692;23.312;2022-11-14T14:50:01;59.00;;;39.47;;
11123;SDS011;5616;42.692;23.312;2022-11-14T14:52:54;60.67;;;39.40;;
11123;SDS011;5616;42.692;23.312;2022-11-14T14:55:41;63.17;;;44.30;;
11123;SDS011;5616;42.692;23.312;2022-11-14T14:58:37;59.83;;;39.67;;
11123;SDS011;5616;42.692;23.312;2022-11-14T15:01:24;64.90;;;38.93;;
11123;SDS011;5616;42.692;23.312;2022-11-14T15:04:15;56.77;;;38.80;;
11123;SDS011;5616;42.692;23.312;2022-11-14T15:07:02;59.17;;;39.97;;
11123;SDS011;5616;42.692;23.312;2022-11-14T15:09:51;64.20;;;38.83;;
11123;SDS011;5616;42.692;23.312;2022-11-14T15:12:38;59.17;;;39.70;;
11123;SDS011;5616;42.692;23.312;2022-11-14T15:15:26;63.03;;;41.33;;
11123;SDS011;5616;42.692;23.312;2022-11-14T15:18:19;62.77;;;40.93;;
11123;SDS011;5616;42.692;23.312;2022-11-14T15:21:08;64.53;;;42.17;;
11123;SDS011;5616;42.692;23.312;2022-11-14T15:23:58;63.87;;;43.17;;
11123;SDS011;5616;42.692;23.312;2022-11-14T15:26:46;66.90;;;43.83;;
11123;SDS011;5616;42.692;23.312;2022-11-14T15:29:33;64.63;;;41.97;;
11123;SDS011;5616;42.692;23.312;2022-11-14T15:32:21;65.40;;;43.13;;
11123;SDS011;5616;42.692;23.312;2022-11-14T15:35:09;62.00;;;43.00;;
11123;SDS011;5616;42.692;23.312;2022-11-14T15:38:17;69.40;;;44.37;;
11123;SDS011;5616;42.692;23.312;2022-11-14T15:41:08;70.80;;;44.57;;
11123;SDS011;5616;42.692;23.312;2022-11-14T15:44:00;67.27;;;44.17;;
11123;SDS011;5616;42.692;23.312;2022-11-14T15:46:46;70.57;;;45.53;;
11123;SDS011;5616;42.692;23.312;2022-11-14T15:49:33;70.60;;;44.07;;
11123;SDS011;5616;42.692;23.312;2022-11-14T15:52:20;64.43;;;41.45;;
11123;SDS011;5616;42.692;23.312;2022-11-14T15:55:11;65.37;;;45.67;;
11123;SDS011;5616;42.692;23.312;2022-11-14T15:57:58;64.57;;;44.87;;
11123;SDS011;5616;42.692;23.312;2022-11-14T16:00:44;63.97;;;41.77;;
11123;SDS011;5616;42.692;23.312;2022-11-14T16:03:33;62.53;;;41.00;;
11123;SDS011;5616;42.692;23.312;2022-11-14T16:06:19;66.77;;;42.87;;
11123;SDS011;5616;42.692;23.312;2022-11-14T16:09:05;62.92;;;40.75;;
11123;SDS011;5616;42.692;23.312;2022-11-14T16:11:57;63.53;;;43.63;;
11123;SDS011;5616;42.692;23.312;2022-11-14T16:14:42;62.10;;;41.80;;
11123;SDS011;5616;42.692;23.312;2022-11-14T16:17:32;62.07;;;42.70;;
11123;SDS011;5616;42.692;23.312;2022-11-14T16:20:20;65.27;;;42.77;;
11123;SDS011;5616;42.692;23.312;2022-11-14T16:23:09;60.43;;;42.27;;
11123;SDS011;5616;42.692;23.312;2022-11-14T16:25:56;62.83;;;42.83;;
11123;SDS011;5616;42.692;23.312;2022-11-14T16:28:42;62.63;;;41.97;;
11123;SDS011;5616;42.692;23.312;2022-11-14T16:31:27;62.53;;;41.47;;
11123;SDS011;5616;42.692;23.312;2022-11-14T16:34:14;67.43;;;42.93;;
11123;SDS011;5616;42.692;23.312;2022-11-14T16:37:02;61.40;;;42.13;;
11123;SDS011;5616;42.692;23.312;2022-11-14T16:39:48;56.30;;;40.37;;
11123;SDS011;5616;42.692;23.312;2022-11-14T16:42:34;67.00;;;43.27;;
11123;SDS011;5616;42.692;23.312;2022-11-14T16:45:20;70.83;;;46.87;;
11123;SDS011;5616;42.692;23.312;2022-11-14T16:48:06;75.03;;;49.13;;
11123;SDS011;5616;42.692;23.312;2022-11-14T16:50:51;85.43;;;51.93;;